createdAt,value
2023-01-17T00:02:08.794Z,89.74
2023-01-17T00:04:54.182Z,88.72
2023-01-17T00:07:41.070Z,88.68
2023-01-17T00:10:11.479Z,89.12
2023-01-17T00:12:39.566Z,88.67
2023-01-17T00:15:07.281Z,88.79
2023-01-17T00:17:34.111Z,88.19
2023-01-17T00:20:20.307Z,88.29
2023-01-17T00:23:05.904Z,88.71
2023-01-17T00:25:57.368Z,88.60
2023-01-17T00:28:24.511Z,88.83
2023-01-17T00:30:51.207Z,88.98
2023-01-17T00:33:18.245Z,89.21
2023-01-17T00:35:45.176Z,89.03
2023-01-17T00:38:17.787Z,89.20
2023-01-17T00:40:45.767Z,89.65
2023-01-17T00:43:33.332Z,89.48
2023-01-17T00:46:18.754Z,89.18
2023-01-17T00:49:04.592Z,89.57
2023-01-17T00:51:51.949Z,89.84
2023-01-17T00:54:37.902Z,90.10
2023-01-17T00:57:24.293Z,89.49
2023-01-17T01:00:09.692Z,89.41
2023-01-17T01:02:56.125Z,89.55
2023-01-17T01:05:41.903Z,89.80
2023-01-17T01:08:46.143Z,90.00
2023-01-17T01:11:37.645Z,90.01
2023-01-17T01:14:24.635Z,89.82
2023-01-17T01:17:09.976Z,89.68
2023-01-17T01:19:55.336Z,90.22
2023-01-17T01:22:40.712Z,90.39
2023-01-17T01:25:26.602Z,89.96
2023-01-17T01:28:11.945Z,90.00
2023-01-17T01:30:57.438Z,90.67
2023-01-17T01:33:24.203Z,90.72
2023-01-17T01:35:55.838Z,90.65
2023-01-17T01:38:25.223Z,91.16
2023-01-17T01:40:55.044Z,91.57
2023-01-17T01:43:40.637Z,91.74
2023-01-17T01:46:09.232Z,91.70
2023-01-17T01:48:43.998Z,91.43
2023-01-17T01:51:16.447Z,91.81
2023-01-17T01:53:46.871Z,91.97
2023-01-17T01:56:15.347Z,91.83
2023-01-17T01:58:46.706Z,91.66
2023-01-17T02:01:14.939Z,92.43
2023-01-17T02:03:42.436Z,92.23
2023-01-17T02:06:35.196Z,91.97
2023-01-17T02:09:07.548Z,92.05
2023-01-17T02:11:37.369Z,92.68
2023-01-17T02:14:04.437Z,92.34
2023-01-17T02:17:02.180Z,92.36
2023-01-17T02:19:56.792Z,92.60
2023-01-17T02:22:44.637Z,92.71
2023-01-17T02:25:14.237Z,92.52
2023-01-17T02:27:52.817Z,92.75
2023-01-17T02:30:41.779Z,92.89
2023-01-17T02:33:27.193Z,93.22
2023-01-17T02:36:26.084Z,93.01
2023-01-17T02:39:04.750Z,92.77
2023-01-17T02:41:36.962Z,92.55
2023-01-17T02:44:04.380Z,93.44
2023-01-17T02:46:31.426Z,92.82
2023-01-17T02:48:58.707Z,93.27
2023-01-17T02:51:49.094Z,93.10
2023-01-17T02:54:15.926Z,93.26
2023-01-17T02:57:30.723Z,93.12
2023-01-17T03:00:38.154Z,93.18
2023-01-17T03:03:04.891Z,93.04
2023-01-17T03:05:48.584Z,93.53
2023-01-17T03:08:16.104Z,93.59
2023-01-17T03:10:44.312Z,93.48
2023-01-17T03:13:11.283Z,93.73
2023-01-17T03:15:40.008Z,94.02
2023-01-17T03:18:12.603Z,93.44
2023-01-17T03:20:39.478Z,93.89
2023-01-17T03:23:06.301Z,93.57
2023-01-17T03:25:33.457Z,93.75
2023-01-17T03:28:00.247Z,93.38
2023-01-17T03:30:27.132Z,94.27
2023-01-17T03:32:53.968Z,93.74
2023-01-17T03:35:20.826Z,93.71
2023-01-17T03:37:47.570Z,94.02
2023-01-17T03:40:14.394Z,93.58
2023-01-17T03:42:41.197Z,93.99
2023-01-17T03:45:08.572Z,93.98
2023-01-17T03:47:36.277Z,93.68
2023-01-17T03:50:03.835Z,93.79
2023-01-17T03:52:30.710Z,94.25
2023-01-17T03:54:57.462Z,93.90
2023-01-17T03:57:24.430Z,94.14
2023-01-17T03:59:51.386Z,93.72
2023-01-17T04:02:18.574Z,93.82
2023-01-17T04:04:48.218Z,94.44
2023-01-17T04:07:14.989Z,94.13
2023-01-17T04:09:41.715Z,94.15
2023-01-17T04:12:09.486Z,94.68
2023-01-17T04:14:36.321Z,94.18
2023-01-17T04:17:04.174Z,94.17
2023-01-17T04:19:33.994Z,94.42
2023-01-17T04:22:00.773Z,94.53
2023-01-17T04:24:27.499Z,94.12
2023-01-17T04:26:54.301Z,94.29
2023-01-17T04:29:21.126Z,94.41
2023-01-17T04:31:48.732Z,94.53
2023-01-17T04:34:15.532Z,94.72
2023-01-17T04:36:42.237Z,94.33
2023-01-17T04:39:09.757Z,94.34
2023-01-17T04:41:37.896Z,94.63
2023-01-17T04:44:05.282Z,94.28
2023-01-17T04:46:32.285Z,94.67
2023-01-17T04:49:00.592Z,94.67
2023-01-17T04:51:27.293Z,94.63
2023-01-17T04:53:54.059Z,94.59
2023-01-17T04:56:21.292Z,94.77
2023-01-17T04:58:51.339Z,94.63
2023-01-17T05:01:19.453Z,94.73
2023-01-17T05:03:47.742Z,94.59
2023-01-17T05:06:15.162Z,94.48
2023-01-17T05:08:48.168Z,95.00
2023-01-17T05:11:15.572Z,94.59
2023-01-17T05:13:42.393Z,94.66
2023-01-17T05:16:09.258Z,94.30
2023-01-17T05:18:36.130Z,94.26
2023-01-17T05:21:04.274Z,94.31
2023-01-17T05:23:31.307Z,94.51
2023-01-17T05:25:58.064Z,94.15
2023-01-17T05:28:25.564Z,94.51
2023-01-17T05:30:52.601Z,94.42
2023-01-17T05:33:19.560Z,94.59
2023-01-17T05:35:46.395Z,94.51
2023-01-17T05:38:13.261Z,94.32
2023-01-17T05:40:40.037Z,94.78
2023-01-17T05:43:07.262Z,94.55
2023-01-17T05:45:34.659Z,94.63
2023-01-17T05:48:02.371Z,94.24
2023-01-17T05:50:32.662Z,94.51
2023-01-17T05:53:06.798Z,94.19
2023-01-17T05:55:34.816Z,93.78
2023-01-17T05:58:02.444Z,94.07
2023-01-17T06:00:30.565Z,94.13
2023-01-17T06:02:59.117Z,93.98
2023-01-17T06:05:27.424Z,93.61
2023-01-17T06:07:54.826Z,93.90
2023-01-17T06:10:22.515Z,93.73
2023-01-17T06:12:49.865Z,93.40
2023-01-17T06:15:18.706Z,93.23
2023-01-17T06:17:45.528Z,93.55
2023-01-17T06:20:13.028Z,93.53
2023-01-17T06:22:39.853Z,93.51
2023-01-17T06:25:07.429Z,93.51
2023-01-17T06:27:34.367Z,93.75
2023-01-17T06:30:01.630Z,93.38
2023-01-17T06:32:28.839Z,93.94
2023-01-17T06:34:55.756Z,93.71
2023-01-17T06:37:22.617Z,93.35
2023-01-17T06:39:49.490Z,93.54
2023-01-17T06:42:16.306Z,93.60
2023-01-17T06:44:43.178Z,93.45
2023-01-17T06:47:09.954Z,93.40
2023-01-17T06:49:36.643Z,93.60
2023-01-17T06:52:03.443Z,93.29
2023-01-17T06:54:30.282Z,93.23
2023-01-17T06:56:57.277Z,93.30
2023-01-17T06:59:24.432Z,93.12
2023-01-17T07:01:51.383Z,93.35
2023-01-17T07:04:18.313Z,93.09
2023-01-17T07:06:45.023Z,93.51
2023-01-17T07:09:12.334Z,92.73
2023-01-17T07:11:39.142Z,92.75
2023-01-17T07:14:06.096Z,92.60
2023-01-17T07:16:34.188Z,92.95
2023-01-17T07:19:01.081Z,92.40
2023-01-17T07:21:27.793Z,93.34
2023-01-17T07:23:54.612Z,92.22
2023-01-17T07:26:21.331Z,92.62
2023-01-17T07:28:48.075Z,92.22
2023-01-17T07:31:14.842Z,92.67
2023-01-17T07:33:41.539Z,93.00
2023-01-17T07:36:09.394Z,92.83
2023-01-17T07:38:36.521Z,92.73
2023-01-17T07:41:03.441Z,92.90
2023-01-17T07:43:30.311Z,92.22
2023-01-17T07:45:57.603Z,92.32
2023-01-17T07:48:24.986Z,92.64
2023-01-17T07:50:54.082Z,92.10
2023-01-17T07:53:22.934Z,92.43
2023-01-17T07:55:49.794Z,92.59
2023-01-17T07:58:16.573Z,92.26
2023-01-17T08:00:44.858Z,92.25
2023-01-17T08:03:14.173Z,92.27
2023-01-17T08:05:42.731Z,92.54
2023-01-17T08:08:10.145Z,92.54
2023-01-17T08:10:36.935Z,92.31
2023-01-17T08:13:03.686Z,92.63
2023-01-17T08:15:30.652Z,92.51
2023-01-17T08:17:58.640Z,92.31
2023-01-17T08:20:27.782Z,92.61
2023-01-17T08:22:56.814Z,92.57
2023-01-17T08:25:25.133Z,92.33
2023-01-17T08:27:56.815Z,92.51
2023-01-17T08:30:24.267Z,91.96
2023-01-17T08:32:51.425Z,92.05
2023-01-17T08:35:20.200Z,92.29
2023-01-17T08:37:48.218Z,92.29
2023-01-17T08:40:20.795Z,92.36
2023-01-17T08:42:58.639Z,92.10
2023-01-17T08:45:26.255Z,91.65
2023-01-17T08:47:53.569Z,92.17
2023-01-17T08:50:20.829Z,91.94
2023-01-17T08:52:49.245Z,91.83
2023-01-17T08:55:16.891Z,91.98
2023-01-17T08:57:43.840Z,91.38
2023-01-17T09:00:11.745Z,91.80
2023-01-17T09:02:39.497Z,91.77
2023-01-17T09:05:07.074Z,91.73
2023-01-17T09:07:34.012Z,91.87
2023-01-17T09:10:00.903Z,91.99
2023-01-17T09:12:32.065Z,91.89
2023-01-17T09:14:59.745Z,92.01
2023-01-17T09:17:31.508Z,91.93
2023-01-17T09:19:59.490Z,91.78
2023-01-17T09:22:27.181Z,92.26
2023-01-17T09:24:54.193Z,91.85
2023-01-17T09:27:21.274Z,92.02
2023-01-17T09:29:48.091Z,92.48
2023-01-17T09:32:17.153Z,92.01
2023-01-17T09:34:44.414Z,91.98
2023-01-17T09:37:13.148Z,92.08
2023-01-17T09:39:40.081Z,92.29
2023-01-17T09:42:33.374Z,91.93
2023-01-17T09:45:00.277Z,92.00
2023-01-17T09:47:45.297Z,91.83
2023-01-17T09:50:24.054Z,91.76
2023-01-17T09:53:00.572Z,91.50
2023-01-17T09:55:50.073Z,91.28
2023-01-17T09:58:25.318Z,91.09
2023-01-17T10:01:08.116Z,91.31
2023-01-17T10:04:19.769Z,91.41
2023-01-17T10:07:17.861Z,91.30
2023-01-17T10:10:02.795Z,91.69
2023-01-17T10:12:39.558Z,91.72
2023-01-17T10:15:21.517Z,91.21
2023-01-17T10:18:28.801Z,91.01
2023-01-17T10:21:03.572Z,91.40
2023-01-17T10:24:13.711Z,91.47
2023-01-17T10:26:42.008Z,90.92
2023-01-17T10:29:15.216Z,91.19
2023-01-17T10:31:51.773Z,91.62
2023-01-17T10:34:37.201Z,91.18
2023-01-17T10:37:22.727Z,90.91
2023-01-17T10:39:52.044Z,91.14
2023-01-17T10:42:43.284Z,90.85
2023-01-17T10:45:25.648Z,90.64
2023-01-17T10:48:22.419Z,90.34
2023-01-17T10:51:11.481Z,90.82
2023-01-17T10:53:45.326Z,91.19
2023-01-17T10:56:14.896Z,90.84
2023-01-17T10:58:41.611Z,90.65
2023-01-17T11:01:19.752Z,90.89
2023-01-17T11:03:54.718Z,90.62
2023-01-17T11:06:26.149Z,90.88
2023-01-17T11:08:53.956Z,90.93
2023-01-17T11:11:24.571Z,90.40
2023-01-17T11:13:53.460Z,90.83
2023-01-17T11:16:33.875Z,90.59
2023-01-17T11:19:19.115Z,91.28
2023-01-17T11:22:06.488Z,91.08
2023-01-17T11:24:49.850Z,90.76
2023-01-17T11:27:56.684Z,90.32
2023-01-17T11:30:29.324Z,89.79
2023-01-17T11:33:06.264Z,90.13
2023-01-17T11:35:41.077Z,89.86
2023-01-17T11:38:21.959Z,90.40
2023-01-17T11:40:50.184Z,90.21
2023-01-17T11:43:25.650Z,90.44
2023-01-17T11:46:14.679Z,90.61
2023-01-17T11:48:41.553Z,90.68
2023-01-17T11:51:19.676Z,90.75
2023-01-17T11:53:48.367Z,90.15
2023-01-17T11:56:32.988Z,90.20
2023-01-17T11:59:29.875Z,90.13
2023-01-17T12:02:05.960Z,90.36
2023-01-17T12:04:42.688Z,89.50
2023-01-17T12:07:18.670Z,89.79
2023-01-17T12:09:57.263Z,89.77
2023-01-17T12:13:11.936Z,89.49
2023-01-17T12:15:41.427Z,90.07
2023-01-17T12:18:33.461Z,89.85
2023-01-17T12:21:09.003Z,90.06
2023-01-17T12:23:43.182Z,89.88
2023-01-17T12:26:31.171Z,89.86
2023-01-17T12:29:09.594Z,90.45
2023-01-17T12:31:49.555Z,89.76
2023-01-17T12:34:29.667Z,89.24
2023-01-17T12:37:26.824Z,89.70
2023-01-17T12:40:00.559Z,89.23
2023-01-17T12:42:35.750Z,89.48
2023-01-17T12:45:32.490Z,89.85
2023-01-17T12:48:05.910Z,89.63
2023-01-17T12:50:41.044Z,89.76
2023-01-17T12:53:19.709Z,90.46
2023-01-17T12:55:54.481Z,89.68
2023-01-17T12:58:24.959Z,90.58
2023-01-17T13:01:08.835Z,90.27
2023-01-17T13:03:43.623Z,90.39
2023-01-17T13:06:22.090Z,90.65
2023-01-17T13:08:53.036Z,90.55
2023-01-17T13:11:45.970Z,90.86
2023-01-17T13:14:12.717Z,91.08
2023-01-17T13:16:44.732Z,90.85
2023-01-17T13:19:28.920Z,90.99
2023-01-17T13:21:57.704Z,91.22
2023-01-17T13:25:00.400Z,91.06
2023-01-17T13:27:57.727Z,90.96
2023-01-17T13:30:59.433Z,91.49
2023-01-17T13:33:45.028Z,91.08
2023-01-17T13:36:37.439Z,91.25
2023-01-17T13:39:27.298Z,91.51
2023-01-17T13:42:05.651Z,91.39
2023-01-17T13:44:33.474Z,91.80
2023-01-17T13:47:27.087Z,91.50
2023-01-17T13:49:56.502Z,91.72
2023-01-17T13:52:26.255Z,91.67
2023-01-17T13:54:57.837Z,92.23
2023-01-17T13:57:29.775Z,91.47
2023-01-17T14:00:23.134Z,91.17
2023-01-17T14:02:52.920Z,91.66
2023-01-17T14:05:41.925Z,91.68
2023-01-17T14:08:18.301Z,92.11
2023-01-17T14:10:48.721Z,92.07
2023-01-17T14:13:35.503Z,92.36
2023-01-17T14:16:21.230Z,92.57
2023-01-17T14:18:49.125Z,92.02
2023-01-17T14:21:21.842Z,92.23
2023-01-17T14:23:56.174Z,92.51
2023-01-17T14:26:30.159Z,91.84
2023-01-17T14:29:05.595Z,92.17
2023-01-17T14:31:33.184Z,92.69
2023-01-17T14:34:11.953Z,92.26
2023-01-17T14:36:39.169Z,92.45
2023-01-17T14:39:21.835Z,92.82
2023-01-17T14:41:55.026Z,92.83
2023-01-17T14:44:28.607Z,92.64
2023-01-17T14:46:57.201Z,92.53
2023-01-17T14:49:26.977Z,92.52
2023-01-17T14:52:04.512Z,92.65
2023-01-17T14:54:31.513Z,92.58
2023-01-17T14:57:33.869Z,92.45
2023-01-17T15:00:20.629Z,92.70
2023-01-17T15:02:49.126Z,92.59
2023-01-17T15:05:22.630Z,92.49
2023-01-17T15:07:55.447Z,92.76
2023-01-17T15:10:27.164Z,92.75
2023-01-17T15:12:57.500Z,92.77
2023-01-17T15:15:28.351Z,92.74
2023-01-17T15:18:19.474Z,92.57
2023-01-17T15:20:52.553Z,92.96
2023-01-17T15:23:21.909Z,92.60
2023-01-17T15:25:50.284Z,92.74
2023-01-17T15:28:18.011Z,92.60
2023-01-17T15:31:10.379Z,92.31
2023-01-17T15:33:41.274Z,92.69
2023-01-17T15:36:16.439Z,92.32
2023-01-17T15:38:52.825Z,92.39
2023-01-17T15:41:23.634Z,92.50
2023-01-17T15:43:51.297Z,93.02
2023-01-17T15:46:23.764Z,92.44
2023-01-17T15:48:51.672Z,92.61
2023-01-17T15:51:33.716Z,93.00
2023-01-17T15:54:00.656Z,92.91
2023-01-17T15:56:33.071Z,92.83
2023-01-17T15:59:21.792Z,92.36
2023-01-17T16:01:57.550Z,92.26
2023-01-17T16:04:33.197Z,92.71
2023-01-17T16:07:11.265Z,91.85
2023-01-17T16:09:43.482Z,92.06
2023-01-17T16:12:10.333Z,92.35
2023-01-17T16:14:59.289Z,92.31
2023-01-17T16:17:24.043Z,92.63
2023-01-17T16:19:50.893Z,92.47
2023-01-17T16:22:17.512Z,92.32
2023-01-17T16:24:44.148Z,92.38
2023-01-17T16:27:11.022Z,92.48
2023-01-17T16:29:37.716Z,91.95
2023-01-17T16:32:08.622Z,91.78
2023-01-17T16:34:35.970Z,91.59
2023-01-17T16:37:05.943Z,91.93
2023-01-17T16:39:32.619Z,92.27
2023-01-17T16:42:02.597Z,91.82
2023-01-17T16:44:33.683Z,92.38
2023-01-17T16:47:01.779Z,92.47
2023-01-17T16:49:32.378Z,92.05
2023-01-17T16:51:59.467Z,92.23
2023-01-17T16:54:26.940Z,92.11
2023-01-17T16:56:53.791Z,92.22
2023-01-17T16:59:20.452Z,92.30
2023-01-17T17:01:48.461Z,92.61
2023-01-17T17:04:15.230Z,92.25
2023-01-17T17:06:42.018Z,91.80
2023-01-17T17:09:08.826Z,92.32
2023-01-17T17:11:35.668Z,92.52
2023-01-17T17:14:03.041Z,91.93
2023-01-17T17:16:30.253Z,91.83
2023-01-17T17:19:02.557Z,92.00
2023-01-17T17:21:30.678Z,91.96
2023-01-17T17:23:59.798Z,92.11
2023-01-17T17:26:30.962Z,92.30
2023-01-17T17:28:58.136Z,92.22
2023-01-17T17:31:25.023Z,92.45
2023-01-17T17:33:52.209Z,92.00
2023-01-17T17:36:19.026Z,92.04
2023-01-17T17:38:51.562Z,92.50
2023-01-17T17:41:27.975Z,92.33
2023-01-17T17:43:55.065Z,92.35
2023-01-17T17:46:24.022Z,92.80
2023-01-17T17:48:51.072Z,92.62
2023-01-17T17:51:30.198Z,92.91
2023-01-17T17:54:06.149Z,92.94
2023-01-17T17:56:33.643Z,92.71
2023-01-17T17:59:01.976Z,92.91
2023-01-17T18:01:28.772Z,92.92
2023-01-17T18:04:02.724Z,92.73
2023-01-17T18:06:30.109Z,92.78
2023-01-17T18:08:56.808Z,92.98
2023-01-17T18:11:26.771Z,93.13
2023-01-17T18:13:55.516Z,93.16
2023-01-17T18:16:22.364Z,93.00
2023-01-17T18:18:51.709Z,93.27
2023-01-17T18:21:27.858Z,93.17
2023-01-17T18:24:00.340Z,93.07
2023-01-17T18:26:30.856Z,92.94
2023-01-17T18:28:58.803Z,93.21
2023-01-17T18:31:27.581Z,92.68
2023-01-17T18:34:01.395Z,92.63
2023-01-17T18:36:28.832Z,91.78
2023-01-17T18:38:56.493Z,92.36
2023-01-17T18:41:26.226Z,92.26
2023-01-17T18:43:53.395Z,92.14
2023-01-17T18:46:20.618Z,92.00
2023-01-17T18:48:47.510Z,92.46
2023-01-17T18:51:16.609Z,92.45
2023-01-17T18:53:45.552Z,91.93
2023-01-17T18:56:18.526Z,92.27
2023-01-17T18:58:47.254Z,92.30
2023-01-17T19:01:15.036Z,91.56
2023-01-17T19:03:43.729Z,91.98
2023-01-17T19:06:14.620Z,91.89
2023-01-17T19:08:42.313Z,92.24
2023-01-17T19:11:10.677Z,91.86
2023-01-17T19:13:40.928Z,91.97
2023-01-17T19:16:12.763Z,91.94
2023-01-17T19:18:40.028Z,91.88
2023-01-17T19:21:19.047Z,91.98
2023-01-17T19:23:46.136Z,92.04
2023-01-17T19:26:14.536Z,91.90
2023-01-17T19:28:43.399Z,91.88
2023-01-17T19:31:22.147Z,91.28
2023-01-17T19:33:54.476Z,91.61
2023-01-17T19:36:24.476Z,91.22
2023-01-17T19:39:03.439Z,91.23
2023-01-17T19:41:31.244Z,91.31
2023-01-17T19:44:00.100Z,91.29
2023-01-17T19:46:27.798Z,91.16
2023-01-17T19:48:56.132Z,91.45
2023-01-17T19:51:24.918Z,91.60
2023-01-17T19:53:53.546Z,91.30
2023-01-17T19:56:23.171Z,90.97
2023-01-17T19:58:50.657Z,91.43
2023-01-17T20:01:21.556Z,91.39
2023-01-17T20:03:48.933Z,90.78
2023-01-17T20:06:19.272Z,91.24
2023-01-17T20:08:47.434Z,91.12
2023-01-17T20:11:19.864Z,91.35
2023-01-17T20:13:48.133Z,91.24
2023-01-17T20:16:17.211Z,91.47
2023-01-17T20:18:44.204Z,91.26
2023-01-17T20:21:14.294Z,91.42
2023-01-17T20:23:43.024Z,91.00
2023-01-17T20:26:19.087Z,91.39
2023-01-17T20:28:47.856Z,91.54
2023-01-17T20:31:20.490Z,91.59
2023-01-17T20:33:50.387Z,91.17
2023-01-17T20:36:19.145Z,91.54
2023-01-17T20:38:46.813Z,91.48
2023-01-17T20:41:25.523Z,91.58
2023-01-17T20:43:54.259Z,91.41
2023-01-17T20:46:23.149Z,91.54
2023-01-17T20:48:52.457Z,91.33
2023-01-17T20:51:20.581Z,91.82
2023-01-17T20:53:52.070Z,91.80
2023-01-17T20:56:19.314Z,91.38
2023-01-17T20:58:46.301Z,91.38
2023-01-17T21:01:19.167Z,90.99
2023-01-17T21:03:48.103Z,91.40
2023-01-17T21:06:15.048Z,91.57
2023-01-17T21:08:43.774Z,91.27
2023-01-17T21:11:15.217Z,91.80
2023-01-17T21:13:42.625Z,91.10
2023-01-17T21:16:12.667Z,91.44
2023-01-17T21:18:39.688Z,91.09
2023-01-17T21:21:11.141Z,91.36
2023-01-17T21:23:40.757Z,91.25
2023-01-17T21:26:12.260Z,91.06
2023-01-17T21:28:41.723Z,90.89
2023-01-17T21:31:27.333Z,91.24
2023-01-17T21:34:08.182Z,91.09
2023-01-17T21:36:38.603Z,91.47
2023-01-17T21:39:12.010Z,91.42
2023-01-17T21:41:41.741Z,91.43
2023-01-17T21:44:16.227Z,91.40
2023-01-17T21:46:43.243Z,91.22
2023-01-17T21:49:11.899Z,90.83
2023-01-17T21:51:52.646Z,91.17
2023-01-17T21:54:48.651Z,91.03
2023-01-17T21:57:50.194Z,91.62
2023-01-17T22:00:17.723Z,92.23
2023-01-17T22:02:46.013Z,92.42
2023-01-17T22:05:13.782Z,92.59
2023-01-17T22:08:00.789Z,93.11
2023-01-17T22:10:28.243Z,92.98
2023-01-17T22:12:55.114Z,92.67
2023-01-17T22:15:21.985Z,92.82
2023-01-17T22:17:49.024Z,92.60
2023-01-17T22:20:16.233Z,93.16
2023-01-17T22:22:43.008Z,92.70
2023-01-17T22:25:10.073Z,92.29
2023-01-17T22:27:36.778Z,92.59
2023-01-17T22:30:03.699Z,92.80
2023-01-17T22:32:30.521Z,92.51
2023-01-17T22:34:57.259Z,92.47
2023-01-17T22:37:23.977Z,92.27
2023-01-17T22:39:50.895Z,92.74
2023-01-17T22:42:17.700Z,92.56
2023-01-17T22:44:44.481Z,92.43
2023-01-17T22:47:12.120Z,92.16
2023-01-17T22:49:40.598Z,92.34
2023-01-17T22:52:07.415Z,92.06
2023-01-17T22:54:34.140Z,92.45
2023-01-17T22:57:00.938Z,92.56
2023-01-17T22:59:27.753Z,92.16
2023-01-17T23:01:54.444Z,92.36
2023-01-17T23:04:21.160Z,92.13
2023-01-17T23:06:48.005Z,92.07
2023-01-17T23:09:17.211Z,91.55
2023-01-17T23:11:47.299Z,92.01
2023-01-17T23:14:21.897Z,91.89
2023-01-17T23:17:15.495Z,91.68
2023-01-17T23:19:47.916Z,91.74
2023-01-17T23:22:17.637Z,92.13
2023-01-17T23:24:52.154Z,91.96
2023-01-17T23:28:11.102Z,91.85
2023-01-17T23:30:40.219Z,91.83
2023-01-17T23:33:12.399Z,91.54
2023-01-17T23:35:42.408Z,91.32
2023-01-17T23:38:33.694Z,91.26
2023-01-17T23:41:24.546Z,90.54
2023-01-17T23:43:57.274Z,90.88
2023-01-17T23:46:25.922Z,90.60
2023-01-17T23:48:53.070Z,91.20
2023-01-17T23:51:19.789Z,90.71
2023-01-17T23:53:46.822Z,90.69
2023-01-17T23:56:18.859Z,90.72
2023-01-17T23:58:45.543Z,91.15
